Terminal Aerodrome Forecast
Issued by NWS

Home | Current Version | Previous Version | Text Only | Print | Product List | Glossary On
Versions: 1 2 3 4 5 6 7 8 9 10 11 12 13
000
FTUS46 KLOX 240443 AAA
TAFOXR
TAF AMD
KOXR 240443Z 2405/2424 VRB05KT 6SM BR BKN007 OVC011
     FM241300 10005KT 1SM BR OVC003
     FM241500 VRB03KT 4SM BR OVC006
     FM241800 22007KT 6SM HZ SCT010
     FM242000 25010KT P6SM SKC=

USA.gov is the U.S. government's official web portal to all federal, state and local government web resources and services.